In Rescue
 
Open Full Screen Window  High Contrast Mode
July 24, 2024 6:17 PM EDT
Weather Information
Wind Direction
  ---
Wind Speed
  00 kt (0 mph)
Wind Gust
  00 kt (0 mph)
Altimeter
30.07 in
Visibility
10 SM
Temperature
23° C
73° F
Dewpoint
21° C
70° F
Humidity
89%
1hr Rain Fall
00.00 in.
24hr Rain Fall
00.00 in.
Sky Condition
Broken @ 8,500 ft
Scattered @ 5,500 ft
Scattered @ 2,100 ft
VFR

METAR K22N 242217Z AUTO 00000KT 10SM SCT021 SCT055 BKN085 23/21 A3007 RMK AO2

FAA Disclaimer: The data displayed is for advisory purposes only and is not to be used for flight planning or operations.